sensor_id;sensor_type;location;lat;lon;timestamp;temperature;humidity
5554;DHT22;2800;49.528;8.666;2023-05-10T00:02:06;13.70;99.90
5554;DHT22;2800;49.528;8.666;2023-05-10T00:04:31;13.60;99.90
5554;DHT22;2800;49.528;8.666;2023-05-10T00:06:57;13.70;99.90
5554;DHT22;2800;49.528;8.666;2023-05-10T00:09:23;13.60;99.90
5554;DHT22;2800;49.528;8.666;2023-05-10T00:11:49;13.60;99.90
5554;DHT22;2800;49.528;8.666;2023-05-10T00:14:14;13.50;99.90
5554;DHT22;2800;49.528;8.666;2023-05-10T00:16:40;13.50;99.90
5554;DHT22;2800;49.528;8.666;2023-05-10T00:19:06;13.50;99.90
5554;DHT22;2800;49.528;8.666;2023-05-10T00:21:31;13.50;99.90
5554;DHT22;2800;49.528;8.666;2023-05-10T00:23:59;13.50;99.90
5554;DHT22;2800;49.528;8.666;2023-05-10T00:26:24;13.40;99.90
5554;DHT22;2800;49.528;8.666;2023-05-10T00:28:50;13.40;99.90
5554;DHT22;2800;49.528;8.666;2023-05-10T00:31:15;13.40;99.90
5554;DHT22;2800;49.528;8.666;2023-05-10T00:33:41;13.30;99.90
5554;DHT22;2800;49.528;8.666;2023-05-10T00:36:07;13.30;99.90
5554;DHT22;2800;49.528;8.666;2023-05-10T00:38:33;13.30;99.90
5554;DHT22;2800;49.528;8.666;2023-05-10T00:40:58;13.30;99.90
5554;DHT22;2800;49.528;8.666;2023-05-10T00:43:24;13.30;99.90
5554;DHT22;2800;49.528;8.666;2023-05-10T00:45:50;13.30;99.90
5554;DHT22;2800;49.528;8.666;2023-05-10T00:48:15;13.30;99.90
5554;DHT22;2800;49.528;8.666;2023-05-10T00:50:41;13.30;99.90
5554;DHT22;2800;49.528;8.666;2023-05-10T00:53:07;13.30;99.90
5554;DHT22;2800;49.528;8.666;2023-05-10T00:55:33;13.20;99.90
5554;DHT22;2800;49.528;8.666;2023-05-10T00:57:59;13.20;99.90
5554;DHT22;2800;49.528;8.666;2023-05-10T01:00:24;13.20;99.90
5554;DHT22;2800;49.528;8.666;2023-05-10T01:02:50;13.20;99.90
5554;DHT22;2800;49.528;8.666;2023-05-10T01:05:17;13.10;99.90
5554;DHT22;2800;49.528;8.666;2023-05-10T01:07:43;13.10;99.90
5554;DHT22;2800;49.528;8.666;2023-05-10T01:10:09;13.20;99.90
5554;DHT22;2800;49.528;8.666;2023-05-10T01:12:38;13.10;99.90
5554;DHT22;2800;49.528;8.666;2023-05-10T01:15:05;13.10;99.90
5554;DHT22;2800;49.528;8.666;2023-05-10T01:17:32;13.10;99.90
5554;DHT22;2800;49.528;8.666;2023-05-10T01:19:58;13.10;99.90
5554;DHT22;2800;49.528;8.666;2023-05-10T01:22:46;13.10;99.90
5554;DHT22;2800;49.528;8.666;2023-05-10T01:33:59;13.10;99.90
5554;DHT22;2800;49.528;8.666;2023-05-10T01:36:51;13.10;99.90
5554;DHT22;2800;49.528;8.666;2023-05-10T01:41:57;13.00;99.90
5554;DHT22;2800;49.528;8.666;2023-05-10T01:45:00;13.00;99.90
5554;DHT22;2800;49.528;8.666;2023-05-10T01:50:04;13.00;99.90
5554;DHT22;2800;49.528;8.666;2023-05-10T01:52:40;12.90;99.90
5554;DHT22;2800;49.528;8.666;2023-05-10T01:55:10;12.90;99.90
5554;DHT22;2800;49.528;8.666;2023-05-10T01:57:37;13.00;99.90
5554;DHT22;2800;49.528;8.666;2023-05-10T02:00:06;12.90;99.90
5554;DHT22;2800;49.528;8.666;2023-05-10T02:02:37;12.90;99.90
5554;DHT22;2800;49.528;8.666;2023-05-10T02:05:05;12.90;99.90
5554;DHT22;2800;49.528;8.666;2023-05-10T02:07:34;12.90;99.90
5554;DHT22;2800;49.528;8.666;2023-05-10T02:10:05;13.00;99.90
5554;DHT22;2800;49.528;8.666;2023-05-10T02:12:36;12.90;99.90
5554;DHT22;2800;49.528;8.666;2023-05-10T02:15:03;12.90;99.90
5554;DHT22;2800;49.528;8.666;2023-05-10T02:17:31;12.90;99.90
5554;DHT22;2800;49.528;8.666;2023-05-10T02:19:59;12.90;99.90
5554;DHT22;2800;49.528;8.666;2023-05-10T02:22:26;12.90;99.90
5554;DHT22;2800;49.528;8.666;2023-05-10T02:24:55;12.90;99.90
5554;DHT22;2800;49.528;8.666;2023-05-10T02:27:22;12.90;99.90
5554;DHT22;2800;49.528;8.666;2023-05-10T02:29:49;12.90;99.90
5554;DHT22;2800;49.528;8.666;2023-05-10T02:32:16;12.90;99.90
5554;DHT22;2800;49.528;8.666;2023-05-10T02:34:44;12.90;99.90
5554;DHT22;2800;49.528;8.666;2023-05-10T02:37:14;12.90;99.90
5554;DHT22;2800;49.528;8.666;2023-05-10T02:39:41;12.80;99.90
5554;DHT22;2800;49.528;8.666;2023-05-10T02:42:14;12.80;99.90
5554;DHT22;2800;49.528;8.666;2023-05-10T02:44:41;12.80;99.90
5554;DHT22;2800;49.528;8.666;2023-05-10T02:47:08;12.80;99.90
5554;DHT22;2800;49.528;8.666;2023-05-10T02:49:34;12.80;99.90
5554;DHT22;2800;49.528;8.666;2023-05-10T02:52:01;12.80;99.90
5554;DHT22;2800;49.528;8.666;2023-05-10T02:54:33;12.80;99.90
5554;DHT22;2800;49.528;8.666;2023-05-10T02:57:01;12.80;99.90
5554;DHT22;2800;49.528;8.666;2023-05-10T02:59:29;12.80;99.90
5554;DHT22;2800;49.528;8.666;2023-05-10T03:01:54;12.80;99.90
5554;DHT22;2800;49.528;8.666;2023-05-10T03:04:20;12.80;99.90
5554;DHT22;2800;49.528;8.666;2023-05-10T03:06:45;12.80;99.90
5554;DHT22;2800;49.528;8.666;2023-05-10T03:09:12;12.90;99.90
5554;DHT22;2800;49.528;8.666;2023-05-10T03:12:01;12.90;99.90
5554;DHT22;2800;49.528;8.666;2023-05-10T03:14:49;12.90;99.90
5554;DHT22;2800;49.528;8.666;2023-05-10T03:20:11;12.90;99.90
5554;DHT22;2800;49.528;8.666;2023-05-10T03:22:42;12.90;99.90
5554;DHT22;2800;49.528;8.666;2023-05-10T03:25:11;12.90;99.90
5554;DHT22;2800;49.528;8.666;2023-05-10T03:27:40;12.80;99.90
5554;DHT22;2800;49.528;8.666;2023-05-10T03:30:08;12.90;99.90
5554;DHT22;2800;49.528;8.666;2023-05-10T03:32:35;12.80;99.90
5554;DHT22;2800;49.528;8.666;2023-05-10T03:35:06;12.80;99.90
5554;DHT22;2800;49.528;8.666;2023-05-10T03:37:32;12.80;99.90
5554;DHT22;2800;49.528;8.666;2023-05-10T03:39:58;12.80;99.90
5554;DHT22;2800;49.528;8.666;2023-05-10T03:42:23;12.80;99.90
5554;DHT22;2800;49.528;8.666;2023-05-10T03:44:49;12.80;99.90
5554;DHT22;2800;49.528;8.666;2023-05-10T03:47:15;12.80;99.90
5554;DHT22;2800;49.528;8.666;2023-05-10T03:49:40;12.80;99.90
5554;DHT22;2800;49.528;8.666;2023-05-10T03:52:06;12.80;99.90
5554;DHT22;2800;49.528;8.666;2023-05-10T03:54:31;12.80;99.90
5554;DHT22;2800;49.528;8.666;2023-05-10T03:56:57;12.80;99.90
5554;DHT22;2800;49.528;8.666;2023-05-10T03:59:23;12.80;99.90
5554;DHT22;2800;49.528;8.666;2023-05-10T04:01:48;12.80;99.90
5554;DHT22;2800;49.528;8.666;2023-05-10T04:04:14;12.80;99.90
5554;DHT22;2800;49.528;8.666;2023-05-10T04:06:39;12.70;99.90
5554;DHT22;2800;49.528;8.666;2023-05-10T04:09:05;12.70;99.90
5554;DHT22;2800;49.528;8.666;2023-05-10T04:11:30;12.70;99.90
5554;DHT22;2800;49.528;8.666;2023-05-10T04:13:56;12.70;99.90
5554;DHT22;2800;49.528;8.666;2023-05-10T04:16:22;12.70;99.90
5554;DHT22;2800;49.528;8.666;2023-05-10T04:18:47;12.60;99.90
5554;DHT22;2800;49.528;8.666;2023-05-10T04:21:14;12.60;99.90
5554;DHT22;2800;49.528;8.666;2023-05-10T04:23:40;12.60;99.90
5554;DHT22;2800;49.528;8.666;2023-05-10T04:26:05;12.60;99.90
5554;DHT22;2800;49.528;8.666;2023-05-10T04:28:31;12.70;99.90
5554;DHT22;2800;49.528;8.666;2023-05-10T04:31:04;12.70;99.90
5554;DHT22;2800;49.528;8.666;2023-05-10T04:33:30;12.70;99.90
5554;DHT22;2800;49.528;8.666;2023-05-10T04:35:55;12.70;99.90
5554;DHT22;2800;49.528;8.666;2023-05-10T04:38:21;12.70;99.90
5554;DHT22;2800;49.528;8.666;2023-05-10T04:40:46;12.70;99.90
5554;DHT22;2800;49.528;8.666;2023-05-10T04:43:12;12.70;99.90
5554;DHT22;2800;49.528;8.666;2023-05-10T04:45:38;12.70;99.90
5554;DHT22;2800;49.528;8.666;2023-05-10T04:48:04;12.70;99.90
5554;DHT22;2800;49.528;8.666;2023-05-10T04:50:30;12.80;99.90
5554;DHT22;2800;49.528;8.666;2023-05-10T04:52:55;12.80;99.90
5554;DHT22;2800;49.528;8.666;2023-05-10T04:55:21;12.80;99.90
5554;DHT22;2800;49.528;8.666;2023-05-10T04:57:47;12.80;99.90
5554;DHT22;2800;49.528;8.666;2023-05-10T05:00:12;12.70;99.90
5554;DHT22;2800;49.528;8.666;2023-05-10T05:02:41;12.70;99.90
5554;DHT22;2800;49.528;8.666;2023-05-10T05:05:07;12.70;99.90
5554;DHT22;2800;49.528;8.666;2023-05-10T05:07:33;12.70;99.90
5554;DHT22;2800;49.528;8.666;2023-05-10T05:09:58;12.70;99.90
5554;DHT22;2800;49.528;8.666;2023-05-10T05:12:24;12.80;99.90
5554;DHT22;2800;49.528;8.666;2023-05-10T05:14:49;12.80;99.90
5554;DHT22;2800;49.528;8.666;2023-05-10T05:17:15;12.80;99.90
5554;DHT22;2800;49.528;8.666;2023-05-10T05:19:40;12.80;99.90
5554;DHT22;2800;49.528;8.666;2023-05-10T05:22:06;12.90;99.90
5554;DHT22;2800;49.528;8.666;2023-05-10T05:24:36;12.90;99.90
5554;DHT22;2800;49.528;8.666;2023-05-10T05:27:05;12.90;99.90
5554;DHT22;2800;49.528;8.666;2023-05-10T05:29:31;12.90;99.90
5554;DHT22;2800;49.528;8.666;2023-05-10T05:31:56;12.90;99.90
5554;DHT22;2800;49.528;8.666;2023-05-10T05:34:22;12.90;99.90
5554;DHT22;2800;49.528;8.666;2023-05-10T05:36:48;13.00;99.90
5554;DHT22;2800;49.528;8.666;2023-05-10T05:39:14;13.10;99.90
5554;DHT22;2800;49.528;8.666;2023-05-10T05:41:39;13.00;99.90
5554;DHT22;2800;49.528;8.666;2023-05-10T05:44:05;13.00;99.90
5554;DHT22;2800;49.528;8.666;2023-05-10T05:46:30;13.10;99.90
5554;DHT22;2800;49.528;8.666;2023-05-10T05:48:56;13.10;99.90
5554;DHT22;2800;49.528;8.666;2023-05-10T05:51:22;13.00;99.90
5554;DHT22;2800;49.528;8.666;2023-05-10T05:53:47;13.10;99.90
5554;DHT22;2800;49.528;8.666;2023-05-10T05:56:13;13.10;99.90
5554;DHT22;2800;49.528;8.666;2023-05-10T05:58:38;13.10;99.90
5554;DHT22;2800;49.528;8.666;2023-05-10T06:01:04;13.20;99.90
5554;DHT22;2800;49.528;8.666;2023-05-10T06:03:29;13.20;99.90
5554;DHT22;2800;49.528;8.666;2023-05-10T06:05:55;13.30;99.90
5554;DHT22;2800;49.528;8.666;2023-05-10T06:08:20;13.30;99.90
5554;DHT22;2800;49.528;8.666;2023-05-10T06:10:46;13.30;99.90
5554;DHT22;2800;49.528;8.666;2023-05-10T06:13:12;13.40;99.90
5554;DHT22;2800;49.528;8.666;2023-05-10T06:15:38;13.30;99.90
5554;DHT22;2800;49.528;8.666;2023-05-10T06:18:03;13.40;99.90
5554;DHT22;2800;49.528;8.666;2023-05-10T06:20:29;13.30;99.90
5554;DHT22;2800;49.528;8.666;2023-05-10T06:22:56;13.40;99.90
5554;DHT22;2800;49.528;8.666;2023-05-10T06:25:22;13.40;99.90
5554;DHT22;2800;49.528;8.666;2023-05-10T06:27:48;13.40;99.90
5554;DHT22;2800;49.528;8.666;2023-05-10T06:30:14;13.50;99.90
5554;DHT22;2800;49.528;8.666;2023-05-10T06:32:40;13.50;99.90
5554;DHT22;2800;49.528;8.666;2023-05-10T06:35:06;13.60;99.90
5554;DHT22;2800;49.528;8.666;2023-05-10T06:37:32;13.60;99.90
5554;DHT22;2800;49.528;8.666;2023-05-10T06:39:57;13.60;99.90
5554;DHT22;2800;49.528;8.666;2023-05-10T06:42:23;13.60;99.90
5554;DHT22;2800;49.528;8.666;2023-05-10T06:44:50;13.70;99.90
5554;DHT22;2800;49.528;8.666;2023-05-10T06:47:16;13.70;99.90
5554;DHT22;2800;49.528;8.666;2023-05-10T06:49:42;13.70;99.90
5554;DHT22;2800;49.528;8.666;2023-05-10T06:52:08;13.70;99.90
5554;DHT22;2800;49.528;8.666;2023-05-10T06:54:33;13.70;99.90
5554;DHT22;2800;49.528;8.666;2023-05-10T06:56:58;13.80;99.90
5554;DHT22;2800;49.528;8.666;2023-05-10T06:59:24;13.70;99.90
5554;DHT22;2800;49.528;8.666;2023-05-10T07:01:50;13.60;99.90
5554;DHT22;2800;49.528;8.666;2023-05-10T07:04:16;13.60;99.90
5554;DHT22;2800;49.528;8.666;2023-05-10T07:06:42;13.60;99.90
5554;DHT22;2800;49.528;8.666;2023-05-10T07:09:08;13.60;99.90
5554;DHT22;2800;49.528;8.666;2023-05-10T07:11:34;13.70;99.90
5554;DHT22;2800;49.528;8.666;2023-05-10T07:14:00;13.70;99.90
5554;DHT22;2800;49.528;8.666;2023-05-10T07:16:25;13.70;99.90
5554;DHT22;2800;49.528;8.666;2023-05-10T07:18:51;13.70;99.90
5554;DHT22;2800;49.528;8.666;2023-05-10T07:21:18;13.80;99.90
5554;DHT22;2800;49.528;8.666;2023-05-10T07:23:43;13.70;99.90
5554;DHT22;2800;49.528;8.666;2023-05-10T07:26:09;13.70;99.90
5554;DHT22;2800;49.528;8.666;2023-05-10T07:28:35;13.70;99.90
5554;DHT22;2800;49.528;8.666;2023-05-10T07:31:03;13.90;99.90
5554;DHT22;2800;49.528;8.666;2023-05-10T07:33:28;14.00;99.90
5554;DHT22;2800;49.528;8.666;2023-05-10T07:35:54;14.10;99.90
5554;DHT22;2800;49.528;8.666;2023-05-10T07:38:19;14.20;99.90
5554;DHT22;2800;49.528;8.666;2023-05-10T07:40:45;14.30;99.90
5554;DHT22;2800;49.528;8.666;2023-05-10T07:43:10;14.40;99.90
5554;DHT22;2800;49.528;8.666;2023-05-10T07:45:35;14.60;99.90
5554;DHT22;2800;49.528;8.666;2023-05-10T07:48:01;14.70;99.90
5554;DHT22;2800;49.528;8.666;2023-05-10T07:50:27;14.80;99.90
5554;DHT22;2800;49.528;8.666;2023-05-10T07:52:52;14.80;99.90
5554;DHT22;2800;49.528;8.666;2023-05-10T07:55:19;14.80;99.90
5554;DHT22;2800;49.528;8.666;2023-05-10T07:57:46;14.70;99.90
5554;DHT22;2800;49.528;8.666;2023-05-10T08:00:17;14.80;99.90
5554;DHT22;2800;49.528;8.666;2023-05-10T08:02:43;15.00;99.90
5554;DHT22;2800;49.528;8.666;2023-05-10T08:05:09;14.90;99.90
5554;DHT22;2800;49.528;8.666;2023-05-10T08:07:35;14.90;99.90
5554;DHT22;2800;49.528;8.666;2023-05-10T08:10:01;15.00;99.90
5554;DHT22;2800;49.528;8.666;2023-05-10T08:12:26;15.00;99.90
5554;DHT22;2800;49.528;8.666;2023-05-10T08:14:52;15.10;99.90
5554;DHT22;2800;49.528;8.666;2023-05-10T08:17:17;15.00;99.90
5554;DHT22;2800;49.528;8.666;2023-05-10T08:19:43;15.00;99.90
5554;DHT22;2800;49.528;8.666;2023-05-10T08:22:08;15.00;99.90
5554;DHT22;2800;49.528;8.666;2023-05-10T08:24:34;14.90;99.90
5554;DHT22;2800;49.528;8.666;2023-05-10T08:27:06;14.80;99.90
5554;DHT22;2800;49.528;8.666;2023-05-10T08:29:32;14.80;99.90
5554;DHT22;2800;49.528;8.666;2023-05-10T08:31:58;14.90;99.90
5554;DHT22;2800;49.528;8.666;2023-05-10T08:34:23;14.90;99.90
5554;DHT22;2800;49.528;8.666;2023-05-10T08:36:49;15.10;99.90
5554;DHT22;2800;49.528;8.666;2023-05-10T08:39:14;14.80;99.90
5554;DHT22;2800;49.528;8.666;2023-05-10T08:41:43;14.80;99.90
5554;DHT22;2800;49.528;8.666;2023-05-10T08:44:09;14.80;99.90
5554;DHT22;2800;49.528;8.666;2023-05-10T08:46:37;14.70;99.90
5554;DHT22;2800;49.528;8.666;2023-05-10T08:49:06;14.70;99.90
5554;DHT22;2800;49.528;8.666;2023-05-10T08:51:36;14.90;99.90
5554;DHT22;2800;49.528;8.666;2023-05-10T08:54:03;15.20;99.90
5554;DHT22;2800;49.528;8.666;2023-05-10T08:56:29;15.40;99.90
5554;DHT22;2800;49.528;8.666;2023-05-10T08:58:55;15.70;99.90
5554;DHT22;2800;49.528;8.666;2023-05-10T09:01:21;16.00;99.90
5554;DHT22;2800;49.528;8.666;2023-05-10T09:03:47;16.30;99.90
5554;DHT22;2800;49.528;8.666;2023-05-10T09:06:13;16.20;99.90
5554;DHT22;2800;49.528;8.666;2023-05-10T09:08:41;16.10;99.90
5554;DHT22;2800;49.528;8.666;2023-05-10T09:11:07;16.30;99.90
5554;DHT22;2800;49.528;8.666;2023-05-10T09:13:35;16.40;99.90
5554;DHT22;2800;49.528;8.666;2023-05-10T09:16:01;16.20;99.90
5554;DHT22;2800;49.528;8.666;2023-05-10T09:18:26;15.80;99.90
5554;DHT22;2800;49.528;8.666;2023-05-10T09:20:52;15.50;99.90
5554;DHT22;2800;49.528;8.666;2023-05-10T09:23:18;15.40;99.90
5554;DHT22;2800;49.528;8.666;2023-05-10T09:25:43;15.10;99.90
5554;DHT22;2800;49.528;8.666;2023-05-10T09:28:09;14.90;99.90
5554;DHT22;2800;49.528;8.666;2023-05-10T09:30:35;14.80;99.90
5554;DHT22;2800;49.528;8.666;2023-05-10T09:33:01;14.60;99.90
5554;DHT22;2800;49.528;8.666;2023-05-10T09:35:30;14.50;99.90
5554;DHT22;2800;49.528;8.666;2023-05-10T09:38:04;14.40;99.90
5554;DHT22;2800;49.528;8.666;2023-05-10T09:40:30;14.30;99.90
5554;DHT22;2800;49.528;8.666;2023-05-10T09:43:08;14.30;99.90
5554;DHT22;2800;49.528;8.666;2023-05-10T09:45:36;14.30;99.90
5554;DHT22;2800;49.528;8.666;2023-05-10T09:48:03;14.40;99.90
5554;DHT22;2800;49.528;8.666;2023-05-10T09:50:29;14.30;99.90
5554;DHT22;2800;49.528;8.666;2023-05-10T09:55:23;14.30;99.90
5554;DHT22;2800;49.528;8.666;2023-05-10T09:57:58;14.40;99.90
5554;DHT22;2800;49.528;8.666;2023-05-10T10:00:25;14.60;99.90
5554;DHT22;2800;49.528;8.666;2023-05-10T10:02:55;14.80;99.90
5554;DHT22;2800;49.528;8.666;2023-05-10T10:05:28;15.00;99.90
5554;DHT22;2800;49.528;8.666;2023-05-10T10:07:54;15.10;99.90
5554;DHT22;2800;49.528;8.666;2023-05-10T10:10:20;15.30;99.90
5554;DHT22;2800;49.528;8.666;2023-05-10T10:12:46;15.30;99.90
5554;DHT22;2800;49.528;8.666;2023-05-10T10:15:11;15.20;99.90
5554;DHT22;2800;49.528;8.666;2023-05-10T10:17:37;15.00;99.90
5554;DHT22;2800;49.528;8.666;2023-05-10T10:20:04;15.00;99.90
5554;DHT22;2800;49.528;8.666;2023-05-10T10:22:30;14.80;99.90
5554;DHT22;2800;49.528;8.666;2023-05-10T10:24:55;14.50;99.90
5554;DHT22;2800;49.528;8.666;2023-05-10T10:33:40;13.90;99.90
5554;DHT22;2800;49.528;8.666;2023-05-10T10:36:08;13.80;99.90
5554;DHT22;2800;49.528;8.666;2023-05-10T10:41:32;13.90;99.90
5554;DHT22;2800;49.528;8.666;2023-05-10T10:44:23;14.00;99.90
5554;DHT22;2800;49.528;8.666;2023-05-10T10:49:23;14.40;99.90
5554;DHT22;2800;49.528;8.666;2023-05-10T10:54:41;14.70;99.90
5554;DHT22;2800;49.528;8.666;2023-05-10T10:57:11;14.70;99.90
5554;DHT22;2800;49.528;8.666;2023-05-10T10:59:43;14.70;99.90
5554;DHT22;2800;49.528;8.666;2023-05-10T11:02:09;14.80;99.90
5554;DHT22;2800;49.528;8.666;2023-05-10T11:04:42;14.90;99.90
5554;DHT22;2800;49.528;8.666;2023-05-10T11:07:18;14.90;99.90
5554;DHT22;2800;49.528;8.666;2023-05-10T11:09:46;15.10;99.90
5554;DHT22;2800;49.528;8.666;2023-05-10T11:12:12;15.20;99.90
5554;DHT22;2800;49.528;8.666;2023-05-10T11:14:37;15.40;99.90
5554;DHT22;2800;49.528;8.666;2023-05-10T11:17:26;15.50;99.90
5554;DHT22;2800;49.528;8.666;2023-05-10T11:20:14;15.70;99.90
5554;DHT22;2800;49.528;8.666;2023-05-10T11:22:49;16.00;99.90
5554;DHT22;2800;49.528;8.666;2023-05-10T11:25:16;16.30;99.90
5554;DHT22;2800;49.528;8.666;2023-05-10T11:27:43;16.60;99.90
5554;DHT22;2800;49.528;8.666;2023-05-10T11:30:12;17.00;99.90
5554;DHT22;2800;49.528;8.666;2023-05-10T11:32:39;17.10;99.90
5554;DHT22;2800;49.528;8.666;2023-05-10T11:35:08;17.20;99.90
5554;DHT22;2800;49.528;8.666;2023-05-10T11:37:34;17.70;99.90
5554;DHT22;2800;49.528;8.666;2023-05-10T11:40:00;17.90;99.90
5554;DHT22;2800;49.528;8.666;2023-05-10T11:42:27;17.80;99.90
5554;DHT22;2800;49.528;8.666;2023-05-10T11:44:53;17.30;99.90
5554;DHT22;2800;49.528;8.666;2023-05-10T11:47:19;16.80;99.90
5554;DHT22;2800;49.528;8.666;2023-05-10T11:49:46;16.50;99.90
5554;DHT22;2800;49.528;8.666;2023-05-10T11:52:12;16.30;99.90
5554;DHT22;2800;49.528;8.666;2023-05-10T11:54:37;16.30;99.90
5554;DHT22;2800;49.528;8.666;2023-05-10T11:57:03;16.50;99.90
5554;DHT22;2800;49.528;8.666;2023-05-10T11:59:29;16.50;99.90
5554;DHT22;2800;49.528;8.666;2023-05-10T12:01:55;16.40;99.90
5554;DHT22;2800;49.528;8.666;2023-05-10T12:04:20;16.50;99.90
5554;DHT22;2800;49.528;8.666;2023-05-10T12:06:46;16.60;99.90
5554;DHT22;2800;49.528;8.666;2023-05-10T12:09:12;16.80;99.90
5554;DHT22;2800;49.528;8.666;2023-05-10T12:11:39;17.50;99.90
5554;DHT22;2800;49.528;8.666;2023-05-10T12:14:05;17.70;99.90
5554;DHT22;2800;49.528;8.666;2023-05-10T12:16:31;17.50;99.90
5554;DHT22;2800;49.528;8.666;2023-05-10T12:18:59;17.40;99.90
5554;DHT22;2800;49.528;8.666;2023-05-10T12:21:26;17.50;99.90
5554;DHT22;2800;49.528;8.666;2023-05-10T12:23:54;17.50;99.90
5554;DHT22;2800;49.528;8.666;2023-05-10T12:26:23;17.50;99.90
5554;DHT22;2800;49.528;8.666;2023-05-10T12:28:49;17.80;99.90
5554;DHT22;2800;49.528;8.666;2023-05-10T12:31:15;18.00;99.90
5554;DHT22;2800;49.528;8.666;2023-05-10T12:33:42;18.20;98.90
5554;DHT22;2800;49.528;8.666;2023-05-10T12:36:09;18.80;99.90
5554;DHT22;2800;49.528;8.666;2023-05-10T12:38:37;18.20;99.90
5554;DHT22;2800;49.528;8.666;2023-05-10T12:41:08;18.10;99.90
5554;DHT22;2800;49.528;8.666;2023-05-10T12:43:35;18.00;99.90
5554;DHT22;2800;49.528;8.666;2023-05-10T12:46:14;17.90;99.90
5554;DHT22;2800;49.528;8.666;2023-05-10T12:48:41;17.80;99.90
5554;DHT22;2800;49.528;8.666;2023-05-10T12:51:07;17.60;99.90
5554;DHT22;2800;49.528;8.666;2023-05-10T12:53:41;17.80;99.90
5554;DHT22;2800;49.528;8.666;2023-05-10T12:56:06;17.70;99.90
5554;DHT22;2800;49.528;8.666;2023-05-10T12:58:32;17.90;99.90
5554;DHT22;2800;49.528;8.666;2023-05-10T13:00:59;18.10;99.90
5554;DHT22;2800;49.528;8.666;2023-05-10T13:03:24;17.80;99.90
5554;DHT22;2800;49.528;8.666;2023-05-10T13:05:50;18.00;99.90
5554;DHT22;2800;49.528;8.666;2023-05-10T13:08:15;18.00;99.90
5554;DHT22;2800;49.528;8.666;2023-05-10T13:10:41;17.80;99.90
5554;DHT22;2800;49.528;8.666;2023-05-10T13:13:07;17.90;99.90
5554;DHT22;2800;49.528;8.666;2023-05-10T13:15:33;18.80;99.90
5554;DHT22;2800;49.528;8.666;2023-05-10T13:17:59;19.20;99.90
5554;DHT22;2800;49.528;8.666;2023-05-10T13:20:25;18.90;99.90
5554;DHT22;2800;49.528;8.666;2023-05-10T13:22:51;18.20;99.90
5554;DHT22;2800;49.528;8.666;2023-05-10T13:25:16;18.10;99.90
5554;DHT22;2800;49.528;8.666;2023-05-10T13:27:42;18.50;99.90
5554;DHT22;2800;49.528;8.666;2023-05-10T13:30:08;18.70;99.90
5554;DHT22;2800;49.528;8.666;2023-05-10T13:32:34;19.20;99.90
5554;DHT22;2800;49.528;8.666;2023-05-10T13:35:00;19.10;99.90
5554;DHT22;2800;49.528;8.666;2023-05-10T13:37:26;19.60;99.90
5554;DHT22;2800;49.528;8.666;2023-05-10T13:39:51;19.40;97.70
5554;DHT22;2800;49.528;8.666;2023-05-10T13:42:18;18.90;97.00
5554;DHT22;2800;49.528;8.666;2023-05-10T13:44:43;19.30;97.60
5554;DHT22;2800;49.528;8.666;2023-05-10T13:47:09;19.40;94.60
5554;DHT22;2800;49.528;8.666;2023-05-10T13:49:35;19.10;94.10
5554;DHT22;2800;49.528;8.666;2023-05-10T13:52:01;19.20;97.90
5554;DHT22;2800;49.528;8.666;2023-05-10T13:54:34;19.40;93.30
5554;DHT22;2800;49.528;8.666;2023-05-10T13:57:00;19.30;92.60
5554;DHT22;2800;49.528;8.666;2023-05-10T13:59:26;19.10;93.00
5554;DHT22;2800;49.528;8.666;2023-05-10T14:01:52;19.00;93.70
5554;DHT22;2800;49.528;8.666;2023-05-10T14:04:17;18.90;95.50
5554;DHT22;2800;49.528;8.666;2023-05-10T14:06:43;18.90;95.80
5554;DHT22;2800;49.528;8.666;2023-05-10T14:09:08;18.80;94.80
5554;DHT22;2800;49.528;8.666;2023-05-10T14:11:34;18.70;92.50
5554;DHT22;2800;49.528;8.666;2023-05-10T14:13:59;18.70;91.50
5554;DHT22;2800;49.528;8.666;2023-05-10T14:16:25;18.30;92.00
5554;DHT22;2800;49.528;8.666;2023-05-10T14:18:51;18.40;92.40
5554;DHT22;2800;49.528;8.666;2023-05-10T14:21:17;18.20;91.70
5554;DHT22;2800;49.528;8.666;2023-05-10T14:23:42;17.90;92.80
5554;DHT22;2800;49.528;8.666;2023-05-10T14:26:08;18.10;93.80
5554;DHT22;2800;49.528;8.666;2023-05-10T14:28:34;18.50;91.60
5554;DHT22;2800;49.528;8.666;2023-05-10T14:30:59;18.80;86.30
5554;DHT22;2800;49.528;8.666;2023-05-10T14:33:25;18.90;83.40
5554;DHT22;2800;49.528;8.666;2023-05-10T14:35:50;19.20;81.00
5554;DHT22;2800;49.528;8.666;2023-05-10T14:38:16;19.00;75.70
5554;DHT22;2800;49.528;8.666;2023-05-10T14:40:42;19.00;75.80
5554;DHT22;2800;49.528;8.666;2023-05-10T14:43:08;19.20;77.60
5554;DHT22;2800;49.528;8.666;2023-05-10T14:45:33;18.90;74.70
5554;DHT22;2800;49.528;8.666;2023-05-10T14:47:59;18.60;71.40
5554;DHT22;2800;49.528;8.666;2023-05-10T14:50:25;18.40;70.40
5554;DHT22;2800;49.528;8.666;2023-05-10T14:52:51;18.70;72.60
5554;DHT22;2800;49.528;8.666;2023-05-10T14:55:16;18.70;64.40
5554;DHT22;2800;49.528;8.666;2023-05-10T14:57:42;18.50;65.50
5554;DHT22;2800;49.528;8.666;2023-05-10T15:00:09;18.60;67.70
5554;DHT22;2800;49.528;8.666;2023-05-10T15:02:35;18.40;64.80
5554;DHT22;2800;49.528;8.666;2023-05-10T15:05:01;18.20;61.00
5554;DHT22;2800;49.528;8.666;2023-05-10T15:07:26;17.90;58.00
5554;DHT22;2800;49.528;8.666;2023-05-10T15:09:52;17.50;56.40
5554;DHT22;2800;49.528;8.666;2023-05-10T15:12:18;17.50;61.10
5554;DHT22;2800;49.528;8.666;2023-05-10T15:14:44;17.60;60.50
5554;DHT22;2800;49.528;8.666;2023-05-10T15:17:09;17.90;58.90
5554;DHT22;2800;49.528;8.666;2023-05-10T15:19:35;18.10;58.80
5554;DHT22;2800;49.528;8.666;2023-05-10T15:22:02;17.90;57.80
5554;DHT22;2800;49.528;8.666;2023-05-10T15:24:27;18.30;56.50
5554;DHT22;2800;49.528;8.666;2023-05-10T15:26:53;17.70;53.50
5554;DHT22;2800;49.528;8.666;2023-05-10T15:29:19;17.70;56.20
5554;DHT22;2800;49.528;8.666;2023-05-10T15:31:48;17.40;55.50
5554;DHT22;2800;49.528;8.666;2023-05-10T15:34:14;17.30;58.60
5554;DHT22;2800;49.528;8.666;2023-05-10T15:36:40;17.10;61.20
5554;DHT22;2800;49.528;8.666;2023-05-10T15:39:06;17.40;63.00
5554;DHT22;2800;49.528;8.666;2023-05-10T15:41:31;17.20;61.50
5554;DHT22;2800;49.528;8.666;2023-05-10T15:43:58;17.50;60.80
5554;DHT22;2800;49.528;8.666;2023-05-10T15:46:27;17.50;61.30
5554;DHT22;2800;49.528;8.666;2023-05-10T15:48:53;17.70;62.20
5554;DHT22;2800;49.528;8.666;2023-05-10T15:51:18;17.70;63.10
5554;DHT22;2800;49.528;8.666;2023-05-10T15:53:44;17.80;60.70
5554;DHT22;2800;49.528;8.666;2023-05-10T15:56:10;17.70;60.30
5554;DHT22;2800;49.528;8.666;2023-05-10T15:58:37;17.80;58.40
5554;DHT22;2800;49.528;8.666;2023-05-10T16:01:03;17.90;62.90
5554;DHT22;2800;49.528;8.666;2023-05-10T16:03:30;18.10;60.30
5554;DHT22;2800;49.528;8.666;2023-05-10T16:05:55;17.90;54.00
5554;DHT22;2800;49.528;8.666;2023-05-10T16:08:21;18.20;55.10
5554;DHT22;2800;49.528;8.666;2023-05-10T16:10:47;18.50;56.60
5554;DHT22;2800;49.528;8.666;2023-05-10T16:13:13;18.60;54.30
5554;DHT22;2800;49.528;8.666;2023-05-10T16:15:39;18.50;51.20
5554;DHT22;2800;49.528;8.666;2023-05-10T16:18:05;18.50;50.60
5554;DHT22;2800;49.528;8.666;2023-05-10T16:20:31;18.40;51.90
5554;DHT22;2800;49.528;8.666;2023-05-10T16:23:02;18.10;51.50
5554;DHT22;2800;49.528;8.666;2023-05-10T16:25:28;17.90;55.00
5554;DHT22;2800;49.528;8.666;2023-05-10T16:27:53;17.80;52.50
5554;DHT22;2800;49.528;8.666;2023-05-10T16:30:19;17.50;55.10
5554;DHT22;2800;49.528;8.666;2023-05-10T16:32:44;17.50;55.70
5554;DHT22;2800;49.528;8.666;2023-05-10T16:35:10;17.70;61.10